Time;durP1;ratioP1;P1;durP2;ratioP2;P2;SDS_P1;SDS_P2;PMS_P1;PMS_P2;Temp;Humidity;BMP_temperature;BMP_pressure;BME280_temperature;BME280_humidity;BME280_pressure;Samples;Min_cycle;Max_cycle;Signal;HPM_P1;HPM_P2
2023/01/25 00:00:40;;;;;;;56.28;17.25;;;;;;;-0.55;100.00;100405.66;15289149;19;20020;-87
2023/01/25 00:06:15;;;;;;;57.80;17.88;;;;;;;-0.59;100.00;100396.94;15286268;19;20021;-86
2023/01/25 00:11:40;;;;;;;27.60;16.23;;;;;;;-0.56;100.00;100394.19;15288417;19;20447;-87
2023/01/25 00:17:06;;;;;;;29.67;16.05;;;;;;;-0.60;100.00;100394.31;15287373;19;20014;-86
2023/01/25 00:22:33;;;;;;;56.15;17.45;;;;;;;-0.62;100.00;100404.97;15291782;19;20770;-85
2023/01/25 00:27:58;;;;;;;67.53;18.13;;;;;;;-0.63;100.00;100396.13;15290511;19;20042;-85
2023/01/25 00:33:40;;;;;;;53.08;18.67;;;;;;;-0.60;100.00;100394.31;15289445;19;20023;-85
2023/01/25 00:39:07;;;;;;;44.33;17.90;;;;;;;-0.58;100.00;100388.06;15286152;19;20090;-87
2023/01/25 00:44:32;;;;;;;38.53;17.73;;;;;;;-0.58;100.00;100380.13;15279204;19;20018;-87
2023/01/25 00:49:56;;;;;;;36.78;17.20;;;;;;;-0.59;100.00;100382.81;15292257;19;20020;-84
2023/01/25 00:55:25;;;;;;;57.58;18.23;;;;;;;-0.60;100.00;100389.91;15298162;19;20006;-87
2023/01/25 01:00:50;;;;;;;36.15;17.83;;;;;;;-0.62;100.00;100399.66;15303792;19;20471;-86
2023/01/25 01:06:36;;;;;;;55.38;17.63;;;;;;;-0.66;100.00;100390.06;15282958;19;20018;-87
2023/01/25 01:25:01;;;;;;;36.92;18.60;;;;;;;-0.68;100.00;100392.75;15282006;19;20097;-87
2023/01/25 01:30:28;;;;;;;71.22;19.65;;;;;;;-0.65;100.00;100386.50;15284535;19;20029;-85
2023/01/25 01:35:53;;;;;;;38.25;18.05;;;;;;;-0.70;100.00;100385.75;15279457;19;20078;-87
2023/01/25 01:41:21;;;;;;;38.53;17.70;;;;;;;-0.72;100.00;100387.59;15276682;19;20038;-86
2023/01/25 01:46:50;;;;;;;99.82;16.67;;;;;;;-0.75;100.00;100395.59;15274224;19;20455;-88
2023/01/25 01:52:21;;;;;;;46.45;16.80;;;;;;;-0.75;100.00;100377.06;15279920;19;20519;-85
2023/01/25 01:57:51;;;;;;;49.95;17.63;;;;;;;-0.80;100.00;100369.25;15277748;19;20014;-87
2023/01/25 02:03:19;;;;;;;130.15;20.38;;;;;;;-0.78;100.00;100354.22;15278479;19;20058;-83
2023/01/25 02:08:43;;;;;;;40.80;18.80;;;;;;;-0.74;100.00;100363.78;15281813;19;20376;-86
2023/01/25 02:14:12;;;;;;;38.03;17.25;;;;;;;-0.78;100.00;100360.34;15273028;19;20018;-89
2023/01/25 02:19:47;;;;;;;36.55;16.88;;;;;;;-0.75;100.00;100356.75;15275468;19;20017;-87
2023/01/25 02:25:23;;;;;;;32.70;15.40;;;;;;;-0.80;100.00;100345.44;15262775;19;20014;-53
2023/01/25 02:30:48;;;;;;;34.80;15.13;;;;;;;-0.80;100.00;100325.13;15266290;19;20097;-54
2023/01/25 02:36:27;;;;;;;29.92;15.15;;;;;;;-0.80;100.00;100319.81;15265143;19;20017;-56
2023/01/25 02:41:54;;;;;;;37.08;15.85;;;;;;;-0.75;100.00;100311.75;15266024;19;20499;-52
2023/01/25 02:47:20;;;;;;;40.97;16.92;;;;;;;-0.74;100.00;100300.25;15262974;19;20935;-50
2023/01/25 02:52:45;;;;;;;32.50;15.77;;;;;;;-0.70;100.00;100301.91;15261779;19;20373;-53
2023/01/25 02:58:13;;;;;;;23.75;13.52;;;;;;;-0.70;100.00;100293.97;15263602;19;20107;-57
2023/01/25 03:03:37;;;;;;;26.88;13.63;;;;;;;-0.67;100.00;100293.91;15261910;19;20010;-50
2023/01/25 03:09:11;;;;;;;27.90;14.98;;;;;;;-0.65;100.00;100292.03;15268731;19;20014;-51
2023/01/25 03:14:39;;;;;;;35.30;15.25;;;;;;;-0.65;100.00;100286.75;15254976;19;20011;-54
2023/01/25 03:20:05;;;;;;;31.08;16.13;;;;;;;-0.64;100.00;100279.69;15269313;19;20031;-52
2023/01/25 03:25:37;;;;;;;42.63;17.45;;;;;;;-0.63;100.00;100284.09;15259235;19;20035;-54
2023/01/25 03:31:05;;;;;;;25.42;14.15;;;;;;;-0.65;100.00;100276.16;15264439;19;20010;-55
2023/01/25 03:36:32;;;;;;;21.27;12.88;;;;;;;-0.64;100.00;100277.06;15262735;19;20018;-56
2023/01/25 03:41:56;;;;;;;19.75;11.73;;;;;;;-0.64;100.00;100262.03;15268422;19;20035;-54
2023/01/25 03:47:25;;;;;;;25.85;12.52;;;;;;;-0.64;100.00;100261.16;15275675;19;20015;-53
2023/01/25 03:52:57;;;;;;;21.52;13.48;;;;;;;-0.64;100.00;100245.28;15273984;19;20042;-53
2023/01/25 03:58:23;;;;;;;18.77;11.40;;;;;;;-0.64;100.00;100235.53;15276940;19;20414;-55
2023/01/25 04:03:51;;;;;;;18.35;12.02;;;;;;;-0.64;100.00;100235.53;15273438;19;20015;-53
2023/01/25 04:09:18;;;;;;;19.50;12.30;;;;;;;-0.64;100.00;100229.41;15278779;19;20482;-52
2023/01/25 04:14:43;;;;;;;22.75;11.77;;;;;;;-0.67;100.00;100218.91;15276684;19;20353;-54
2023/01/25 04:20:13;;;;;;;20.27;12.20;;;;;;;-0.67;100.00;100219.78;15268906;19;20022;-51
2023/01/25 04:25:46;;;;;;;26.30;13.90;;;;;;;-0.68;100.00;100223.34;15274566;19;20018;-50
2023/01/25 04:31:10;;;;;;;24.40;13.82;;;;;;;-0.66;100.00;100217.97;15273230;19;20022;-54
2023/01/25 04:36:38;;;;;;;24.70;14.02;;;;;;;-0.72;100.00;100211.09;15271353;19;21159;-50
2023/01/25 04:42:02;;;;;;;20.95;11.70;;;;;;;-0.70;100.00;100219.84;15271196;19;20352;-53
2023/01/25 04:47:31;;;;;;;19.65;11.70;;;;;;;-0.69;100.00;100221.59;15273306;19;20011;-57
2023/01/25 04:52:58;;;;;;;16.67;10.13;;;;;;;-0.69;100.00;100211.00;15263845;19;20071;-53
2023/01/25 04:58:24;;;;;;;17.30;11.10;;;;;;;-0.67;100.00;100209.19;15269103;19;20086;-53
2023/01/25 05:03:48;;;;;;;19.13;11.57;;;;;;;-0.67;100.00;100208.31;15265998;19;20360;-53
2023/01/25 05:09:28;;;;;;;20.20;10.88;;;;;;;-0.70;100.00;100196.03;15270280;19;20393;-56
2023/01/25 05:14:52;;;;;;;20.20;11.45;;;;;;;-0.71;100.00;100181.06;15266648;19;20018;-55
2023/01/25 05:20:20;;;;;;;18.67;10.82;;;;;;;-0.73;100.00;100177.59;15261054;19;20022;-56
2023/01/25 05:31:26;;;;;;;18.33;10.43;;;;;;;-0.74;100.00;100181.16;15267220;19;20034;-54
2023/01/25 05:36:51;;;;;;;16.60;9.88;;;;;;;-0.75;100.00;100173.25;15267365;19;20015;-55
2023/01/25 05:42:23;;;;;;;17.20;10.50;;;;;;;-0.75;100.00;100174.13;15266452;19;20364;-54
2023/01/25 05:47:54;;;;;;;16.77;9.70;;;;;;;-0.73;100.00;100182.88;15268106;19;20088;-50
2023/01/25 05:53:20;;;;;;;16.38;9.85;;;;;;;-0.75;100.00;100187.34;15268051;19;20081;-54
2023/01/25 05:58:47;;;;;;;15.18;8.52;;;;;;;-0.80;100.00;100176.06;15265918;19;20359;-55
2023/01/25 06:04:13;;;;;;;13.73;8.52;;;;;;;-0.79;100.00;100161.91;15261502;19;20019;-52
2023/01/25 06:09:37;;;;;;;15.52;9.45;;;;;;;-0.78;100.00;100161.84;15270959;19;20022;-56
2023/01/25 06:15:05;;;;;;;16.95;9.93;;;;;;;-0.74;100.00;100159.97;15268649;19;20028;-49
2023/01/25 06:20:29;;;;;;;16.02;10.27;;;;;;;-0.73;100.00;100161.72;15261941;19;20018;-53
2023/01/25 06:26:05;;;;;;;18.67;10.98;;;;;;;-0.70;100.00;100164.28;15266972;19;20038;-52
2023/01/25 06:31:32;;;;;;;18.52;10.98;;;;;;;-0.68;100.00;100178.34;15263474;19;20022;-56
2023/01/25 06:36:58;;;;;;;16.83;10.80;;;;;;;-0.71;100.00;100170.47;15265335;19;20026;-52
2023/01/25 06:42:23;;;;;;;19.67;11.02;;;;;;;-0.71;100.00;100165.19;15268687;19;20098;-55
2023/01/25 06:47:51;;;;;;;17.02;10.05;;;;;;;-0.68;100.00;100172.16;15264184;19;20018;-52
2023/01/25 06:53:15;;;;;;;13.85;9.50;;;;;;;-0.70;100.00;100172.22;15265779;19;20073;-53
2023/01/25 06:58:41;;;;;;;16.08;10.00;;;;;;;-0.70;100.00;100166.03;15265440;19;20531;-56
2023/01/25 07:04:11;;;;;;;17.30;9.90;;;;;;;-0.73;100.00;100167.00;15257426;19;20011;-51
2023/01/25 07:09:36;;;;;;;16.33;9.48;;;;;;;-0.73;100.00;100156.41;15263445;19;20014;-52
2023/01/25 07:15:00;;;;;;;13.93;9.40;;;;;;;-0.74;100.00;100156.47;15263070;19;20014;-55
2023/01/25 07:20:28;;;;;;;17.23;11.02;;;;;;;-0.72;100.00;100158.16;15275274;19;20017;-54
2023/01/25 07:25:59;;;;;;;16.55;10.70;;;;;;;-0.71;100.00;100144.00;15276727;19;20018;-55
2023/01/25 07:31:25;;;;;;;19.70;11.93;;;;;;;-0.69;100.00;100147.47;15280731;19;20788;-50
2023/01/25 07:36:52;;;;;;;21.27;12.77;;;;;;;-0.65;100.00;100138.50;15276220;19;20019;-53
2023/01/25 07:42:17;;;;;;;27.15;15.35;;;;;;;-0.66;100.00;100139.44;15276374;19;20073;-53
2023/01/25 07:47:56;;;;;;;23.73;12.68;;;;;;;-0.64;100.00;100134.09;15276137;19;20546;-54
2023/01/25 07:53:24;;;;;;;19.67;12.63;;;;;;;-0.64;100.00;100134.94;15270476;19;20392;-51
2023/01/25 07:58:49;;;;;;;18.48;11.55;;;;;;;-0.67;100.00;100123.59;15279048;19;20015;-49
2023/01/25 08:04:21;;;;;;;20.63;12.38;;;;;;;-0.70;100.00;100121.03;15261522;19;20015;-49
2023/01/25 08:09:48;;;;;;;15.38;10.30;;;;;;;-0.72;100.00;100107.88;15266434;19;20025;-49
2023/01/25 08:15:14;;;;;;;15.98;10.50;;;;;;;-0.68;100.00;100113.91;15272576;19;20814;-50
2023/01/25 08:20:46;;;;;;;13.15;9.48;;;;;;;-0.66;100.00;100104.16;15252395;19;20081;-49
2023/01/25 08:26:16;;;;;;;13.15;9.45;;;;;;;-0.64;100.00;100097.88;15266557;19;20022;-49
2023/01/25 08:31:44;;;;;;;13.02;9.23;;;;;;;-0.57;100.00;100087.13;15279008;19;20017;-52
2023/01/25 08:37:08;;;;;;;15.35;10.20;;;;;;;-0.56;100.00;100081.75;15271541;19;20026;-53
2023/01/25 08:42:36;;;;;;;14.85;9.75;;;;;;;-0.51;100.00;100084.25;15274959;19;20365;-50
2023/01/25 08:48:00;;;;;;;16.23;10.27;;;;;;;-0.52;100.00;100077.22;15267210;19;20038;-50
2023/01/25 08:53:25;;;;;;;15.55;10.60;;;;;;;-0.52;100.00;100069.28;15267691;19;20029;-50
2023/01/25 08:58:53;;;;;;;16.20;10.65;;;;;;;-0.52;100.00;100066.63;15267838;19;20025;-53
2023/01/25 09:04:18;;;;;;;13.45;9.73;;;;;;;-0.57;100.00;100052.69;15262625;19;20074;-50
2023/01/25 09:09:43;;;;;;;12.95;9.13;;;;;;;-0.56;100.00;100031.47;15260152;19;20018;-52
2023/01/25 09:15:12;;;;;;;11.73;8.32;;;;;;;-0.51;100.00;100031.31;15261758;19;20027;-49
2023/01/25 09:20:40;;;;;;;11.02;8.20;;;;;;;-0.49;100.00;100025.06;15269009;19;20182;-48
2023/01/25 09:26:06;;;;;;;13.50;9.32;;;;;;;-0.49;100.00;100018.88;15264962;19;20019;-51
2023/01/25 09:31:34;;;;;;;12.15;9.43;;;;;;;-0.47;100.00;100014.41;15273355;19;20438;-50
2023/01/25 09:37:12;;;;;;;13.40;9.48;;;;;;;-0.50;100.00;100018.03;15270250;19;20041;-50
2023/01/25 09:43:00;;;;;;;11.77;8.65;;;;;;;-0.55;100.00;100013.81;15263782;19;20018;-52
2023/01/25 09:48:41;;;;;;;10.80;8.35;;;;;;;-0.53;100.00;100002.25;15267672;19;20018;-54
2023/01/25 09:54:12;;;;;;;12.00;8.70;;;;;;;-0.48;100.00;99996.78;15266489;19;20019;-53
2023/01/25 09:59:39;;;;;;;9.48;7.88;;;;;;;-0.54;100.00;99989.91;15266453;19;20414;-50
2023/01/25 10:05:21;;;;;;;11.80;8.88;;;;;;;-0.45;100.00;99995.81;15263649;19;20030;-52
2023/01/25 10:10:48;;;;;;;11.57;8.20;;;;;;;-0.41;100.00;99982.41;15264134;19;20478;-49
2023/01/25 10:16:21;;;;;;;12.00;8.85;;;;;;;-0.45;100.00;99978.16;15258183;19;20526;-52
2023/01/25 10:21:58;;;;;;;10.07;8.43;;;;;;;-0.40;100.00;99978.00;15261541;19;20018;-50
2023/01/25 10:27:36;;;;;;;13.57;8.98;;;;;;;-0.37;100.00;99965.50;15265315;19;20018;-48
2023/01/25 10:33:09;;;;;;;11.70;7.68;;;;;;;-0.44;100.00;99955.19;15264504;19;20042;-49
2023/01/25 10:38:42;;;;;;;7.78;6.63;;;;;;;-0.50;100.00;99927.13;15266098;19;20726;-49
2023/01/25 10:49:51;;;;;;;9.02;6.78;;;;;;;-0.47;100.00;99913.78;15265272;19;20498;-49
2023/01/25 10:55:21;;;;;;;8.00;6.37;;;;;;;-0.45;100.00;99896.06;15273379;19;20065;-50
2023/01/25 11:00:49;;;;;;;10.00;7.88;;;;;;;-0.45;100.00;99889.91;15274961;19;20022;-51
2023/01/25 11:06:21;;;;;;;10.07;8.40;;;;;;;-0.45;100.00;99882.84;15277093;19;20018;-50
2023/01/25 11:11:56;;;;;;;11.57;9.27;;;;;;;-0.48;100.00;99877.66;15284709;19;20089;-49
2023/01/25 11:17:32;;;;;;;9.43;7.57;;;;;;;-0.49;100.00;99865.31;15285827;19;20028;-51
2023/01/25 11:22:58;;;;;;;10.45;8.07;;;;;;;-0.57;100.00;99859.44;15276930;19;20039;-51
2023/01/25 11:28:29;;;;;;;8.40;6.82;;;;;;;-0.48;100.00;99861.75;15273835;19;20022;-51
2023/01/25 11:33:54;;;;;;;7.43;6.32;;;;;;;-0.37;100.00;99848.13;15270345;19;20459;-48
2023/01/25 11:39:34;;;;;;;8.98;7.00;;;;;;;-0.26;100.00;99834.47;15277764;19;20041;-51
2023/01/25 11:45:25;;;;;;;8.93;5.88;;;;;;;-0.26;100.00;99823.88;15277630;19;20018;-48
2023/01/25 11:50:55;;;;;;;8.02;6.30;;;;;;;-0.26;100.00;99815.94;15275972;19;20086;-51
2023/01/25 11:56:33;;;;;;;8.50;7.18;;;;;;;-0.21;100.00;99793.66;15275857;19;20027;-49
2023/01/25 12:02:14;;;;;;;8.45;6.22;;;;;;;-0.21;100.00;99793.66;15277092;19;20003;-52
2023/01/25 12:07:56;;;;;;;6.65;5.65;;;;;;;-0.27;100.00;99783.31;15282814;19;20764;-50
2023/01/25 12:13:29;;;;;;;6.80;5.65;;;;;;;-0.33;100.00;99773.81;15279410;19;20118;-53
2023/01/25 12:19:19;;;;;;;7.32;5.85;;;;;;;-0.35;100.00;99764.19;15279437;19;20479;-53
2023/01/25 12:24:53;;;;;;;8.65;7.25;;;;;;;-0.31;100.00;99744.59;15276741;19;20010;-49
2023/01/25 12:30:29;;;;;;;8.80;7.55;;;;;;;-0.32;100.00;99727.00;15278625;19;20026;-52
2023/01/25 12:36:04;;;;;;;9.02;7.53;;;;;;;-0.25;100.00;99736.44;15276813;19;20014;-51
2023/01/25 12:41:39;;;;;;;9.35;7.70;;;;;;;-0.17;100.00;99733.47;15273151;19;20384;-49
2023/01/25 12:47:12;;;;;;;9.63;7.40;;;;;;;-0.14;100.00;99719.25;15276686;19;20022;-49
2023/01/25 12:52:42;;;;;;;10.65;8.73;;;;;;;-0.17;100.00;99717.56;15274442;19;20017;-52
2023/01/25 12:58:17;;;;;;;10.20;8.52;;;;;;;-0.20;100.00;99693.88;15278414;19;20610;-52
2023/01/25 13:04:08;;;;;;;11.15;8.13;;;;;;;-0.20;100.00;99693.88;15274668;19;20409;-51
2023/01/25 13:09:44;;;;;;;10.70;8.07;;;;;;;-0.11;100.00;99688.19;15275651;19;20223;-53
2023/01/25 13:15:10;;;;;;;10.70;8.30;;;;;;;-0.15;100.00;99681.28;15272028;19;20030;-49
2023/01/25 13:20:51;;;;;;;9.18;7.40;;;;;;;-0.06;100.00;99666.81;15278375;19;20022;-49
2023/01/25 13:27:06;;;;;;;10.63;8.20;;;;;;;-0.02;100.00;99669.28;15275218;19;20050;-49
2023/01/25 13:33:05;;;;;;;10.05;7.68;;;;;;;-0.17;100.00;99646.06;15275895;19;20467;-49
2023/01/25 13:38:43;;;;;;;11.73;9.13;;;;;;;-0.22;100.00;99634.81;15276488;19;20365;-48
2023/01/25 13:44:27;;;;;;;11.88;8.10;;;;;;;-0.30;100.00;99621.03;15273153;19;20020;-49
2023/01/25 13:50:06;;;;;;;10.63;8.68;;;;;;;-0.26;100.00;99623.47;15274512;19;20087;-51
2023/01/25 13:55:32;;;;;;;9.93;8.10;;;;;;;-0.26;100.00;99614.66;15272704;19;20035;-51
2023/01/25 14:01:05;;;;;;;9.25;7.75;;;;;;;-0.33;100.00;99600.78;15274659;19;20014;-49
2023/01/25 14:06:40;;;;;;;10.88;8.18;;;;;;;-0.28;100.00;99595.31;15275198;19;20015;-52
2023/01/25 14:12:10;;;;;;;9.98;7.82;;;;;;;-0.38;100.00;99590.41;15285377;19;20032;-53
2023/01/25 14:17:38;;;;;;;11.77;8.90;;;;;;;-0.34;100.00;99581.41;15272657;19;20580;-53
2023/01/25 14:23:04;;;;;;;11.35;8.35;;;;;;;-0.30;100.00;99578.66;15272749;19;20495;-49
2023/01/25 14:28:30;;;;;;;9.55;7.90;;;;;;;-0.34;100.00;99568.19;15280245;19;20022;-50
2023/01/25 14:34:01;;;;;;;10.27;8.60;;;;;;;-0.34;100.00;99564.66;15279703;19;20019;-49
2023/01/25 14:39:37;;;;;;;11.43;8.77;;;;;;;-0.40;100.00;99551.69;15278343;19;20031;-49
2023/01/25 14:45:03;;;;;;;10.18;8.30;;;;;;;-0.35;100.00;99542.63;15273240;19;20462;-49
2023/01/25 14:50:41;;;;;;;11.82;9.45;;;;;;;-0.30;100.00;99550.38;15285119;19;20046;-50
2023/01/25 14:56:07;;;;;;;10.27;8.18;;;;;;;-0.30;100.00;99541.56;15279347;19;20014;-87
2023/01/25 15:01:37;;;;;;;11.80;9.50;;;;;;;-0.29;100.00;99533.56;15296242;19;20031;-88
2023/01/25 15:07:19;;;;;;;9.73;8.40;;;;;;;-0.29;100.00;99528.25;15298738;19;20036;-90
2023/01/25 15:12:57;;;;;;;11.48;9.77;;;;;;;-0.32;100.00;99510.72;15301597;19;20036;-87
2023/01/25 15:18:59;;;;;;;12.68;10.15;;;;;;;-0.29;100.00;99508.88;15293615;19;20026;-84
2023/01/25 15:24:30;;;;;;;12.57;10.20;;;;;;;-0.30;100.00;99502.69;15297332;19;20086;-86
2023/01/25 15:29:54;;;;;;;9.25;7.53;;;;;;;-0.40;100.00;99496.91;15301161;19;20011;-87
2023/01/25 15:35:22;;;;;;;10.80;7.68;;;;;;;-0.47;100.00;99485.72;15286849;19;20014;-85
2023/01/25 15:40:59;;;;;;;8.02;6.88;;;;;;;-0.48;100.00;99476.09;15306442;19;20023;-86
2023/01/25 15:46:33;;;;;;;8.30;7.40;;;;;;;-0.58;100.00;99472.09;15309764;19;20038;-85
2023/01/25 15:52:01;;;;;;;9.93;8.15;;;;;;;-0.56;100.00;99472.03;15335025;19;20010;-88
2023/01/25 15:57:41;;;;;;;10.85;8.82;;;;;;;-0.53;100.00;99464.81;15323925;19;20085;-88
2023/01/25 16:03:09;;;;;;;9.95;8.38;;;;;;;-0.53;100.00;99463.97;15343916;19;20015;-93
2023/01/25 16:08:35;;;;;;;10.65;8.95;;;;;;;-0.54;100.00;99472.84;15353416;19;20026;-86
2023/01/25 16:14:14;;;;;;;10.70;8.63;;;;;;;-0.53;100.00;99472.75;15324165;19;20007;-87
2023/01/25 16:19:44;;;;;;;10.10;8.52;;;;;;;-0.55;100.00;99465.81;15317899;19;20597;-86
2023/01/25 16:25:11;;;;;;;10.77;9.00;;;;;;;-0.58;100.00;99465.94;15299726;19;20018;-86
2023/01/25 16:30:35;;;;;;;10.50;8.75;;;;;;;-0.60;100.00;99459.84;15292208;19;20020;-87
2023/01/25 16:47:52;;;;;;;10.15;8.93;;;;;;;-0.65;100.00;99441.53;15293820;19;19982;-86
2023/01/25 16:53:42;;;;;;;11.38;8.77;;;;;;;-0.72;100.00;99443.56;15332355;19;20014;-86
2023/01/25 16:59:32;;;;;;;9.45;8.10;;;;;;;-0.77;100.00;99432.34;15303643;19;20014;-86
2023/01/25 17:04:58;;;;;;;11.02;9.68;;;;;;;-0.73;100.00;99431.25;15320573;19;20018;-82
2023/01/25 17:10:31;;;;;;;11.73;10.50;;;;;;;-0.69;100.00;99432.84;15321273;19;20014;-87
2023/01/25 17:15:59;;;;;;;10.95;9.68;;;;;;;-0.70;100.00;99432.91;15319693;19;20026;-87
2023/01/25 17:27:20;;;;;;;11.30;10.10;;;;;;;-0.65;100.00;99415.91;15305213;19;20021;-84
2023/01/25 17:32:44;;;;;;;12.40;8.93;;;;;;;-0.66;100.00;99416.84;15298060;19;20085;-83
2023/01/25 17:38:14;;;;;;;9.18;8.20;;;;;;;-0.75;100.00;99401.34;15299974;19;20011;-85
2023/01/25 17:43:45;;;;;;;10.50;9.40;;;;;;;-0.78;100.00;99402.34;15298996;19;20010;-85
2023/01/25 17:49:15;;;;;;;9.07;8.18;;;;;;;-0.81;100.00;99404.28;15310594;19;20353;-90
2023/01/25 17:54:35;;;;;;;9.50;8.07;;;;;;;-0.81;100.00;99396.34;15297760;19;20027;-86
2023/01/25 18:05:39;;;;;;;11.57;10.00;;;;;;;-0.78;100.00;99389.13;15306002;19;20014;-85
2023/01/25 18:11:09;;;;;;;11.32;9.45;;;;;;;-0.77;100.00;99376.75;15304044;19;20650;-85
2023/01/25 18:22:27;;;;;;;9.00;8.10;;;;;;;-0.78;100.00;99365.31;15301370;19;20038;-86
2023/01/25 18:28:04;;;;;;;10.40;9.13;;;;;;;-0.82;100.00;99354.91;15303130;19;20523;-84
2023/01/25 18:33:32;;;;;;;10.90;9.30;;;;;;;-0.83;100.00;99355.84;15302356;19;20327;-87
2023/01/25 18:39:05;;;;;;;11.00;9.05;;;;;;;-0.82;100.00;99350.47;15293673;19;20340;-86
2023/01/25 18:44:34;;;;;;;10.98;9.77;;;;;;;-0.82;100.00;99323.16;15295553;19;20316;-86
2023/01/25 18:50:04;;;;;;;13.57;10.60;;;;;;;-0.84;100.00;99325.91;15300010;19;20018;-86
2023/01/25 18:55:30;;;;;;;13.43;11.85;;;;;;;-0.81;100.00;99314.31;15302027;19;20027;-85
2023/01/25 19:01:14;;;;;;;20.60;17.85;;;;;;;-0.89;100.00;99303.22;15294199;19;20019;-86
2023/01/25 19:06:45;;;;;;;17.77;14.02;;;;;;;-0.88;100.00;99304.94;15293129;19;20618;-86
2023/01/25 19:12:03;;;;;;;12.25;10.95;;;;;;;-0.99;100.00;99293.00;15290297;19;20041;-84
2023/01/25 19:17:30;;;;;;;12.00;10.68;;;;;;;-1.00;100.00;99291.28;15306299;19;20017;-85
2023/01/25 19:22:55;;;;;;;12.93;11.10;;;;;;;-1.01;100.00;99304.59;15308002;19;20045;-86
2023/01/25 19:28:20;;;;;;;11.30;9.73;;;;;;;-1.09;100.00;99307.56;15308839;19;20061;-85
2023/01/25 19:33:47;;;;;;;11.07;9.52;;;;;;;-1.12;100.00;99300.63;15344075;19;20027;-85
2023/01/25 19:39:12;;;;;;;11.52;10.38;;;;;;;-1.17;100.00;99289.38;15313757;19;20019;-85
2023/01/25 19:44:42;;;;;;;11.85;10.65;;;;;;;-1.19;100.00;99275.38;15282507;19;20011;-84
2023/01/25 19:50:12;;;;;;;11.55;10.18;;;;;;;-1.17;100.00;99264.72;15296623;19;20031;-84
2023/01/25 19:55:39;;;;;;;12.07;10.77;;;;;;;-1.15;100.00;99262.88;15291653;19;20010;-85
2023/01/25 20:01:09;;;;;;;12.65;10.88;;;;;;;-1.19;100.00;99256.00;15292913;19;20027;-83
2023/01/25 20:06:37;;;;;;;12.77;11.48;;;;;;;-1.18;100.00;99249.78;15295608;19;20021;-85
2023/01/25 20:12:06;;;;;;;11.98;10.18;;;;;;;-1.23;100.00;99243.84;15301262;19;20022;-85
2023/01/25 20:17:37;;;;;;;10.95;9.75;;;;;;;-1.21;100.00;99237.56;15311315;19;20035;-85
2023/01/25 20:23:07;;;;;;;9.95;8.75;;;;;;;-1.31;100.00;99229.16;15310055;19;20021;-87
2023/01/25 20:28:31;;;;;;;10.27;8.93;;;;;;;-1.35;100.00;99221.44;15317267;19;20017;-84
2023/01/25 20:33:58;;;;;;;9.43;8.38;;;;;;;-1.35;100.00;99206.41;15346273;19;20019;-85
2023/01/25 20:39:27;;;;;;;13.57;11.15;;;;;;;-1.32;100.00;99202.81;15306405;19;20011;-84
2023/01/25 20:44:53;;;;;;;10.52;9.40;;;;;;;-1.31;100.00;99186.88;15302730;19;20046;-85
2023/01/25 20:50:19;;;;;;;11.25;9.65;;;;;;;-1.31;100.00;99178.94;15312927;19;20517;-85
2023/01/25 20:55:56;;;;;;;12.20;10.32;;;;;;;-1.28;100.00;99181.44;15321836;19;20700;-85
2023/01/25 21:01:23;;;;;;;9.70;8.70;;;;;;;-1.29;100.00;99173.56;15316753;19;20007;-85
2023/01/25 21:06:48;;;;;;;11.25;9.43;;;;;;;-1.29;100.00;99166.50;15309380;19;20011;-85
2023/01/25 21:12:16;;;;;;;9.07;8.18;;;;;;;-1.25;100.00;99160.16;15312163;19;20050;-85
2023/01/25 21:17:42;;;;;;;10.98;9.10;;;;;;;-1.25;100.00;99169.88;15310539;19;20018;-85
2023/01/25 21:23:08;;;;;;;10.85;9.60;;;;;;;-1.24;100.00;99176.88;15301041;19;20070;-85
2023/01/25 21:34:11;;;;;;;11.77;10.07;;;;;;;-1.18;100.00;99183.69;15300139;19;20624;-85
2023/01/25 21:39:38;;;;;;;10.05;9.02;;;;;;;-1.22;100.00;99175.03;15297980;19;20023;-86
2023/01/25 21:56:22;;;;;;;10.73;8.65;;;;;;;-1.29;100.00;99158.56;15299147;19;20090;-85
2023/01/25 22:01:52;;;;;;;9.55;8.50;;;;;;;-1.33;100.00;99151.69;15302442;19;20010;-86
2023/01/25 22:07:21;;;;;;;9.75;8.60;;;;;;;-1.36;100.00;99146.56;15301081;19;20031;-85
2023/01/25 22:12:49;;;;;;;11.02;9.55;;;;;;;-1.37;100.00;99150.13;15305975;19;20018;-85
2023/01/25 22:18:14;;;;;;;11.73;10.50;;;;;;;-1.37;100.00;99138.69;15303516;19;20022;-85
2023/01/25 22:23:45;;;;;;;11.85;10.55;;;;;;;-1.32;100.00;99145.50;15296405;19;20034;-82
2023/01/25 22:29:09;;;;;;;12.67;11.13;;;;;;;-1.34;100.00;99135.91;15305701;19;20532;-87
2023/01/25 22:34:34;;;;;;;12.27;10.73;;;;;;;-1.32;100.00;99126.13;15301125;19;20086;-88
2023/01/25 22:40:02;;;;;;;9.93;8.93;;;;;;;-1.33;100.00;99130.56;15300495;19;20022;-84
2023/01/25 22:45:28;;;;;;;10.40;9.30;;;;;;;-1.39;100.00;99114.97;15295007;19;20371;-86
2023/01/25 22:50:54;;;;;;;11.27;10.00;;;;;;;-1.37;100.00;99106.97;15363608;19;20019;-84
2023/01/25 22:56:23;;;;;;;11.13;9.60;;;;;;;-1.37;100.00;99099.91;15317533;19;20010;-85
2023/01/25 23:01:47;;;;;;;11.15;10.05;;;;;;;-1.37;100.00;99091.97;15309825;19;20019;-84
2023/01/25 23:07:17;;;;;;;14.00;11.35;;;;;;;-1.43;100.00;99082.56;15295136;19;20006;-85
2023/01/25 23:12:46;;;;;;;14.50;12.20;;;;;;;-1.42;100.00;99068.41;15297389;19;20498;-86
2023/01/25 23:23:59;;;;;;;14.02;12.25;;;;;;;-1.43;100.00;99058.75;15295153;19;20035;-86
2023/01/25 23:29:27;;;;;;;13.77;12.05;;;;;;;-1.44;100.00;99054.41;15301725;19;20018;-85
2023/01/25 23:34:54;;;;;;;15.32;12.85;;;;;;;-1.41;100.00;99046.31;15297879;19;20014;-86
2023/01/25 23:40:19;;;;;;;14.25;12.52;;;;;;;-1.44;100.00;99043.81;15290941;19;20011;-85
2023/01/25 23:45:47;;;;;;;14.32;12.80;;;;;;;-1.46;100.00;99044.81;15288080;19;20453;-86
2023/01/25 23:51:13;;;;;;;13.95;11.57;;;;;;;-1.47;100.00;99038.66;15298096;19;20018;-86
2023/01/25 23:56:38;;;;;;;11.95;10.73;;;;;;;-1.42;100.00;99041.09;15288188;19;20015;-85
